Time;durP1;ratioP1;P1;durP2;ratioP2;P2;SDS_P1;SDS_P2;PMS_P1;PMS_P2;Temp;Humidity;BMP_temperature;BMP_pressure;BME280_temperature;BME280_humidity;BME280_pressure;Samples;Min_cycle;Max_cycle;Signal;HPM_P1;HPM_P2
2022/06/07 00:00:20;;;;;;;8.63;5.40;;;15.20;99.90;;;;;;4957009;29;20087;-77
2022/06/07 00:02:46;;;;;;;10.65;5.40;;;15.10;99.90;;;;;;4957253;29;20035;-77
2022/06/07 00:05:11;;;;;;;8.88;6.18;;;15.10;99.90;;;;;;4939404;29;20459;-77
2022/06/07 00:07:37;;;;;;;5.82;5.22;;;15.10;99.90;;;;;;4939688;29;20070;-77
2022/06/07 00:10:04;;;;;;;7.30;5.68;;;15.10;99.90;;;;;;4956816;29;20114;-77
2022/06/07 00:12:29;;;;;;;5.45;4.95;;;15.10;99.90;;;;;;4956717;29;20042;-77
2022/06/07 00:14:55;;;;;;;6.53;5.10;;;15.10;99.90;;;;;;4956739;29;20027;-77
2022/06/07 00:17:21;;;;;;;5.10;4.68;;;15.00;99.90;;;;;;4956466;29;20356;-77
2022/06/07 00:19:47;;;;;;;8.23;5.30;;;15.00;99.90;;;;;;4939690;29;20024;-77
2022/06/07 00:22:12;;;;;;;7.80;5.50;;;15.00;99.90;;;;;;4956825;29;20032;-78
2022/06/07 00:24:38;;;;;;;5.65;5.07;;;15.00;99.90;;;;;;4956507;29;20056;-76
2022/06/07 00:27:05;;;;;;;8.80;5.50;;;14.90;99.90;;;;;;4956555;29;20380;-77
2022/06/07 00:29:31;;;;;;;5.95;5.22;;;14.90;99.90;;;;;;4939423;29;20054;-76
2022/06/07 00:31:58;;;;;;;6.15;5.32;;;14.90;99.90;;;;;;4939131;29;20515;-76
2022/06/07 00:34:24;;;;;;;8.90;5.63;;;14.80;99.90;;;;;;4939577;29;20023;-76
2022/06/07 00:36:50;;;;;;;9.80;5.68;;;14.80;99.90;;;;;;4956439;29;20045;-76
2022/06/07 00:39:16;;;;;;;5.50;5.00;;;14.80;99.90;;;;;;4956614;29;20035;-76
2022/06/07 00:41:41;;;;;;;6.63;5.40;;;14.80;99.90;;;;;;4956232;29;20031;-76
2022/06/07 00:44:25;;;;;;;7.38;5.30;;;14.70;99.90;;;;;;4939058;29;20033;-76
2022/06/07 00:46:57;;;;;;;11.82;5.40;;;14.70;99.90;;;;;;4956539;29;20027;-77
2022/06/07 00:49:25;;;;;;;7.50;5.65;;;14.70;99.90;;;;;;4956366;29;20058;-76
2022/06/07 00:51:51;;;;;;;6.00;5.40;;;14.70;99.90;;;;;;4955987;29;20448;-77
2022/06/07 00:54:29;;;;;;;8.23;5.35;;;14.70;99.90;;;;;;4956281;29;20050;-76
2022/06/07 00:56:55;;;;;;;7.38;5.78;;;14.60;99.90;;;;;;4956385;29;20041;-76
2022/06/07 00:59:22;;;;;;;9.60;5.43;;;14.60;99.90;;;;;;4938579;29;20098;-76
2022/06/07 01:01:47;;;;;;;6.40;5.22;;;14.60;99.90;;;;;;4938738;29;20041;-76
2022/06/07 01:04:13;;;;;;;8.02;5.57;;;14.60;99.90;;;;;;4938817;29;20027;-77
2022/06/07 01:12:07;;;;;;;6.88;5.30;;;14.50;99.90;;;;;;4955560;29;20446;-76
2022/06/07 01:14:33;;;;;;;10.50;6.00;;;14.50;99.90;;;;;;4938688;29;20023;-76
2022/06/07 01:16:58;;;;;;;5.82;5.30;;;14.50;99.90;;;;;;4956079;29;20074;-76
2022/06/07 01:19:25;;;;;;;7.22;5.10;;;14.50;99.90;;;;;;4955813;29;20024;-76
2022/06/07 01:21:51;;;;;;;8.50;5.35;;;14.40;99.90;;;;;;4956021;29;20031;-76
2022/06/07 01:24:17;;;;;;;6.00;5.40;;;14.40;99.90;;;;;;4935219;29;20056;-76
2022/06/07 01:26:43;;;;;;;5.50;5.00;;;14.40;99.90;;;;;;4919420;29;20385;-77
2022/06/07 01:29:10;;;;;;;6.50;5.13;;;14.40;99.90;;;;;;4936367;29;20028;-77
2022/06/07 01:31:36;;;;;;;5.95;5.45;;;14.40;99.90;;;;;;4903523;29;20036;-76
2022/06/07 01:34:02;;;;;;;8.63;6.00;;;14.40;99.90;;;;;;4919317;29;20034;-76
2022/06/07 01:36:28;;;;;;;6.63;5.78;;;14.40;99.90;;;;;;4936657;29;20349;-76
2022/06/07 01:41:56;;;;;;;6.20;5.10;;;14.30;99.90;;;;;;4936594;29;20104;-76
2022/06/07 01:44:22;;;;;;;6.22;5.32;;;14.30;99.90;;;;;;4936434;29;20110;-76
2022/06/07 01:46:47;;;;;;;6.40;5.70;;;14.30;99.90;;;;;;4936368;29;20084;-77
2022/06/07 01:49:13;;;;;;;5.65;5.15;;;14.20;99.90;;;;;;4936434;29;20035;-77
2022/06/07 01:51:39;;;;;;;7.13;5.25;;;14.20;99.90;;;;;;4936189;29;20036;-76
2022/06/07 01:54:05;;;;;;;5.55;5.05;;;14.30;99.90;;;;;;4919318;29;20488;-77
2022/06/07 01:56:31;;;;;;;9.68;5.38;;;14.20;99.90;;;;;;4919664;29;20039;-76
2022/06/07 01:58:57;;;;;;;7.47;5.55;;;14.20;99.90;;;;;;4936465;29;20023;-76
2022/06/07 02:01:23;;;;;;;5.40;4.78;;;14.20;99.90;;;;;;4919216;29;20483;-77
2022/06/07 02:03:49;;;;;;;8.15;5.40;;;14.20;99.90;;;;;;4936537;29;20039;-76
2022/06/07 02:06:15;;;;;;;7.15;5.22;;;14.20;99.90;;;;;;4919069;29;20028;-77
2022/06/07 02:08:41;;;;;;;5.70;5.15;;;14.20;99.90;;;;;;4936601;29;20039;-77
2022/06/07 02:11:16;;;;;;;6.28;5.07;;;14.20;99.90;;;;;;4936148;29;20035;-76
2022/06/07 02:13:42;;;;;;;7.78;5.70;;;14.20;99.90;;;;;;4936021;29;20043;-77
2022/06/07 02:16:08;;;;;;;12.98;5.60;;;14.20;99.90;;;;;;4936216;29;20028;-76
2022/06/07 02:18:34;;;;;;;8.98;5.90;;;14.10;99.90;;;;;;4938245;29;20468;-76
2022/06/07 02:21:00;;;;;;;5.95;5.25;;;14.10;99.90;;;;;;4939850;29;20020;-76
2022/06/07 02:23:30;;;;;;;9.15;5.22;;;14.10;99.90;;;;;;4939562;29;20042;-76
2022/06/07 02:26:00;;;;;;;5.85;5.32;;;14.10;99.90;;;;;;4921779;29;20056;-76
2022/06/07 02:28:30;;;;;;;7.93;6.05;;;14.10;99.90;;;;;;4920778;29;20028;-76
2022/06/07 02:30:58;;;;;;;6.00;5.35;;;14.10;99.90;;;;;;4903739;29;20407;-76
2022/06/07 02:33:25;;;;;;;6.10;5.33;;;14.10;99.90;;;;;;4920425;29;20485;-76
2022/06/07 02:35:51;;;;;;;5.63;5.13;;;14.10;99.90;;;;;;4904013;29;20024;-76
2022/06/07 02:38:17;;;;;;;7.90;5.93;;;14.10;99.90;;;;;;4920339;29;20573;-77
2022/06/07 02:40:45;;;;;;;9.93;5.68;;;14.10;99.90;;;;;;4920297;29;20047;-77
2022/06/07 02:43:11;;;;;;;6.55;5.88;;;14.00;99.90;;;;;;4903325;29;20456;-76
2022/06/07 02:45:37;;;;;;;7.20;5.25;;;14.00;99.90;;;;;;4919964;29;20075;-77
2022/06/07 02:48:03;;;;;;;8.00;5.22;;;14.00;99.90;;;;;;4920323;29;20032;-77
2022/06/07 02:50:29;;;;;;;8.40;5.22;;;14.00;99.90;;;;;;4920164;29;20028;-77
2022/06/07 02:52:55;;;;;;;9.20;5.63;;;14.00;99.90;;;;;;4920069;29;20131;-77
2022/06/07 02:55:20;;;;;;;5.45;4.93;;;14.00;99.90;;;;;;4920201;29;20070;-77
2022/06/07 02:57:46;;;;;;;7.00;5.22;;;14.00;99.90;;;;;;4919979;29;20040;-77
2022/06/07 03:00:14;;;;;;;8.60;5.90;;;14.00;99.90;;;;;;4919932;29;20475;-77
2022/06/07 03:02:40;;;;;;;6.47;5.60;;;14.00;99.90;;;;;;4902915;29;20032;-77
2022/06/07 03:05:06;;;;;;;6.90;5.03;;;14.00;99.90;;;;;;4919877;29;20067;-77
2022/06/07 03:07:32;;;;;;;7.95;5.88;;;13.90;99.90;;;;;;4919824;29;20531;-78
2022/06/07 03:09:57;;;;;;;7.13;5.22;;;13.90;99.90;;;;;;4920042;29;20107;-77
2022/06/07 03:12:23;;;;;;;6.10;5.47;;;13.90;99.90;;;;;;4902821;29;20050;-77
2022/06/07 03:14:49;;;;;;;9.07;5.15;;;13.90;99.90;;;;;;4919758;29;20028;-77
2022/06/07 03:17:14;;;;;;;7.60;6.10;;;13.90;99.90;;;;;;4919663;29;20080;-77
2022/06/07 03:19:40;;;;;;;6.40;5.57;;;13.90;99.90;;;;;;4919716;29;20433;-77
2022/06/07 03:22:07;;;;;;;7.25;5.50;;;13.90;99.90;;;;;;4919637;29;20499;-76
2022/06/07 03:24:34;;;;;;;8.57;5.38;;;14.00;99.90;;;;;;4915618;29;20079;-76
2022/06/07 03:26:59;;;;;;;6.53;5.22;;;14.00;99.90;;;;;;4957608;29;20027;-77
2022/06/07 03:29:25;;;;;;;6.10;5.50;;;14.00;99.90;;;;;;4956882;28;20033;-76
2022/06/07 03:31:51;;;;;;;5.90;5.30;;;14.00;99.90;;;;;;4940715;29;20490;-76
2022/06/07 03:34:17;;;;;;;6.13;5.45;;;14.00;99.90;;;;;;4957565;29;20027;-77
2022/06/07 03:36:43;;;;;;;6.00;5.40;;;14.00;99.90;;;;;;4940267;29;20038;-76
2022/06/07 03:39:10;;;;;;;6.38;5.60;;;14.00;99.90;;;;;;4957416;29;20074;-76
2022/06/07 03:41:36;;;;;;;6.90;5.60;;;14.10;99.90;;;;;;4957331;29;20046;-76
2022/06/07 03:44:03;;;;;;;7.53;5.60;;;14.10;99.90;;;;;;4957590;29;20058;-77
2022/06/07 03:46:32;;;;;;;6.40;5.40;;;14.10;99.90;;;;;;4940251;29;20038;-77
2022/06/07 03:48:59;;;;;;;9.00;5.63;;;14.10;99.90;;;;;;4957407;29;20028;-76
2022/06/07 03:51:27;;;;;;;6.25;5.45;;;14.20;99.90;;;;;;4956989;29;20546;-77
2022/06/07 03:53:53;;;;;;;6.70;5.38;;;14.20;99.90;;;;;;4957156;29;20374;-76
2022/06/07 03:56:21;;;;;;;6.13;5.53;;;14.20;99.90;;;;;;4957072;29;20027;-77
2022/06/07 03:58:47;;;;;;;8.30;5.30;;;14.20;99.90;;;;;;4957059;29;20415;-76
2022/06/07 04:01:15;;;;;;;8.40;5.43;;;14.20;99.90;;;;;;4956649;29;20111;-77
2022/06/07 04:03:42;;;;;;;6.00;5.40;;;14.20;99.90;;;;;;4957432;29;20070;-77
2022/06/07 04:06:27;;;;;;;7.90;5.68;;;14.20;99.90;;;;;;4939791;29;20035;-76
2022/06/07 04:08:53;;;;;;;6.07;5.32;;;14.20;99.90;;;;;;4939824;29;20028;-76
2022/06/07 04:11:21;;;;;;;6.22;4.82;;;14.30;99.90;;;;;;4956726;29;20082;-77
2022/06/07 04:13:48;;;;;;;10.88;5.70;;;14.30;99.90;;;;;;4939854;29;20378;-77
2022/06/07 04:16:16;;;;;;;5.80;5.28;;;14.40;99.90;;;;;;4956694;29;20027;-77
2022/06/07 04:18:43;;;;;;;7.50;5.47;;;14.40;99.90;;;;;;4956729;29;20035;-78
2022/06/07 04:21:09;;;;;;;5.43;4.93;;;14.40;99.90;;;;;;4939207;29;20054;-81
2022/06/07 04:23:35;;;;;;;5.45;4.95;;;14.50;99.90;;;;;;4956634;29;20090;-80
2022/06/07 04:26:08;;;;;;;5.57;5.07;;;14.50;99.90;;;;;;4956945;29;20484;-79
2022/06/07 04:28:34;;;;;;;6.07;5.30;;;14.60;99.90;;;;;;4956282;29;20031;-78
2022/06/07 04:31:00;;;;;;;6.22;5.28;;;14.70;99.90;;;;;;4939352;29;20130;-79
2022/06/07 04:33:26;;;;;;;7.32;4.88;;;14.80;99.90;;;;;;4956054;29;20106;-79
2022/06/07 04:35:51;;;;;;;5.55;5.05;;;14.90;99.90;;;;;;4956545;29;20031;-85
2022/06/07 04:38:17;;;;;;;5.35;4.47;;;15.00;99.90;;;;;;4956467;29;20027;-82
2022/06/07 04:40:44;;;;;;;7.40;4.95;;;15.10;99.90;;;;;;4956091;28;20061;-81
2022/06/07 04:43:10;;;;;;;7.47;5.00;;;15.10;99.90;;;;;;4939304;29;20505;-81
2022/06/07 04:45:37;;;;;;;5.38;4.40;;;15.20;99.90;;;;;;4939440;29;20035;-80
2022/06/07 04:48:04;;;;;;;7.10;4.75;;;15.30;99.90;;;;;;4956164;29;20054;-79
2022/06/07 04:50:30;;;;;;;13.05;4.70;;;15.40;99.90;;;;;;4939804;29;20416;-82
2022/06/07 04:52:56;;;;;;;4.65;4.30;;;15.50;99.90;;;;;;4938676;29;20038;-82
2022/06/07 04:55:22;;;;;;;8.23;5.00;;;15.60;99.90;;;;;;4956187;29;20059;-82
2022/06/07 04:57:47;;;;;;;7.47;4.82;;;15.70;99.90;;;;;;4956527;29;20451;-82
2022/06/07 05:00:15;;;;;;;5.90;4.35;;;15.80;99.90;;;;;;4938952;29;20027;-81
2022/06/07 05:02:45;;;;;;;8.23;4.20;;;15.90;99.90;;;;;;4956235;29;20070;-82
2022/06/07 05:05:12;;;;;;;4.70;4.10;;;16.10;99.90;;;;;;4956151;29;20478;-81
2022/06/07 05:07:39;;;;;;;5.80;4.07;;;16.20;99.90;;;;;;4956378;29;20410;-81
2022/06/07 05:10:10;;;;;;;6.10;4.20;;;16.30;99.90;;;;;;4939177;29;20415;-81
2022/06/07 05:12:37;;;;;;;4.15;3.70;;;16.50;99.90;;;;;;4956254;29;20043;-82
2022/06/07 05:15:04;;;;;;;7.45;3.90;;;16.60;99.90;;;;;;4956463;29;20123;-83
2022/06/07 05:17:30;;;;;;;4.15;3.83;;;16.80;99.90;;;;;;4939085;29;20032;-82
2022/06/07 05:19:56;;;;;;;7.22;3.70;;;17.00;99.90;;;;;;4955951;29;20360;-82
2022/06/07 05:22:22;;;;;;;4.20;3.33;;;17.20;99.90;;;;;;4956200;29;20046;-82
2022/06/07 05:24:47;;;;;;;4.07;3.22;;;17.50;99.90;;;;;;4935300;29;20054;-82
2022/06/07 05:27:18;;;;;;;5.18;2.85;;;17.70;99.90;;;;;;4937247;29;20083;-83
2022/06/07 05:29:48;;;;;;;4.78;3.53;;;18.00;99.90;;;;;;4936771;29;20395;-82
2022/06/07 05:32:15;;;;;;;3.72;2.80;;;18.30;99.90;;;;;;4937008;29;20039;-83
2022/06/07 05:34:40;;;;;;;3.67;2.55;;;18.50;99.90;;;;;;4919941;29;20540;-83
2022/06/07 05:37:06;;;;;;;6.18;3.55;;;18.70;99.90;;;;;;4936819;29;20066;-83
2022/06/07 05:39:32;;;;;;;4.50;2.70;;;18.90;99.90;;;;;;4920161;29;20369;-84
2022/06/07 05:42:00;;;;;;;7.75;2.90;;;19.10;99.90;;;;;;4920041;29;20491;-81
2022/06/07 05:44:27;;;;;;;3.53;3.22;;;19.30;99.90;;;;;;4919901;29;20127;-82
2022/06/07 05:46:53;;;;;;;3.75;2.38;;;19.50;99.90;;;;;;4936601;29;20483;-82
2022/06/07 05:49:19;;;;;;;3.13;2.33;;;19.70;99.90;;;;;;4936646;29;20031;-82
2022/06/07 05:51:46;;;;;;;5.85;2.40;;;19.90;99.90;;;;;;4919512;29;20036;-83
2022/06/07 05:54:12;;;;;;;4.88;2.80;;;20.10;99.90;;;;;;4923308;29;20055;-83
2022/06/07 05:56:39;;;;;;;5.90;3.53;;;20.40;99.90;;;;;;4940121;29;20063;-83
2022/06/07 05:59:07;;;;;;;3.38;2.20;;;20.60;99.90;;;;;;4940412;29;20495;-83
2022/06/07 06:01:33;;;;;;;2.38;2.17;;;20.90;99.90;;;;;;4940418;29;20024;-83
2022/06/07 06:03:59;;;;;;;7.28;2.35;;;21.10;99.90;;;;;;4923376;29;20455;-83
2022/06/07 06:06:25;;;;;;;5.22;2.15;;;21.40;99.90;;;;;;4923076;29;20111;-83
2022/06/07 06:11:36;;;;;;;2.10;2.00;;;22.00;99.90;;;;;;4940230;29;20146;-83
2022/06/07 06:14:02;;;;;;;2.10;1.92;;;22.30;99.90;;;;;;4939953;29;20055;-82
2022/06/07 06:16:28;;;;;;;4.43;1.90;;;22.60;99.90;;;;;;4940000;29;20051;-83
2022/06/07 06:18:57;;;;;;;2.15;1.92;;;23.20;99.90;;;;;;4922815;29;20465;-83
2022/06/07 06:21:25;;;;;;;2.85;1.83;;;23.60;99.90;;;;;;4939999;29;20552;-81
2022/06/07 06:23:51;;;;;;;1.88;1.63;;;23.80;99.90;;;;;;4939608;29;20032;-80
2022/06/07 06:26:19;;;;;;;2.03;1.80;;;23.80;99.90;;;;;;4939700;29;20102;-80
2022/06/07 06:28:44;;;;;;;3.88;2.17;;;23.70;99.90;;;;;;4939773;29;20058;-80
2022/06/07 06:31:12;;;;;;;1.85;1.75;;;23.70;99.90;;;;;;4939452;29;20457;-80
2022/06/07 06:33:40;;;;;;;2.33;1.70;;;23.80;99.90;;;;;;4939479;29;20039;-80
2022/06/07 06:36:08;;;;;;;2.67;1.55;;;23.60;99.90;;;;;;4923080;29;20126;-80
2022/06/07 06:38:34;;;;;;;5.83;2.93;;;24.00;99.90;;;;;;4922371;29;20031;-81
2022/06/07 06:41:11;;;;;;;1.58;1.48;;;24.20;99.90;;;;;;4939398;29;20487;-81
2022/06/07 06:43:37;;;;;;;3.15;2.28;;;24.10;99.90;;;;;;4922865;29;20377;-80
2022/06/07 06:46:11;;;;;;;3.80;1.40;;;23.90;99.90;;;;;;4938094;29;20024;-80
2022/06/07 06:48:37;;;;;;;3.53;1.65;;;23.80;99.90;;;;;;4939148;29;20047;-80
2022/06/07 06:51:05;;;;;;;2.20;2.00;;;23.80;99.90;;;;;;4939037;29;20111;-80
2022/06/07 06:53:32;;;;;;;3.03;1.52;;;23.80;99.90;;;;;;4938914;29;20063;-80
2022/06/07 06:55:58;;;;;;;2.63;1.52;;;23.90;99.90;;;;;;4939168;29;20388;-79
2022/06/07 06:58:26;;;;;;;5.35;1.58;;;24.00;99.90;;;;;;4921848;29;20023;-80
2022/06/07 07:01:14;;;;;;;1.65;1.55;;;24.10;99.90;;;;;;4938897;29;20080;-79
2022/06/07 07:03:41;;;;;;;1.30;1.30;;;24.50;99.90;;;;;;4938436;29;20043;-81
2022/06/07 07:06:09;;;;;;;1.92;1.40;;;24.90;99.90;;;;;;4938700;29;20028;-81
2022/06/07 07:08:37;;;;;;;1.50;1.40;;;25.20;99.20;;;;;;4938842;29;20052;-81
2022/06/07 07:11:11;;;;;;;1.60;1.50;;;25.50;96.80;;;;;;4939012;29;20375;-82
2022/06/07 07:13:38;;;;;;;2.33;1.70;;;25.50;96.10;;;;;;4938790;29;20124;-82
2022/06/07 07:16:07;;;;;;;1.90;1.70;;;25.60;96.50;;;;;;4938480;29;20036;-81
2022/06/07 07:18:33;;;;;;;3.28;1.25;;;25.80;95.00;;;;;;4938650;29;20035;-81
2022/06/07 07:21:02;;;;;;;1.63;1.35;;;26.40;94.80;;;;;;4921389;29;20425;-81
2022/06/07 07:23:28;;;;;;;2.38;1.52;;;27.00;92.20;;;;;;4921846;29;20038;-81
2022/06/07 07:26:02;;;;;;;2.05;1.30;;;27.40;83.90;;;;;;4938632;29;20134;-81
2022/06/07 07:28:28;;;;;;;3.47;1.23;;;26.70;83.90;;;;;;4937992;29;20444;-79
2022/06/07 07:30:59;;;;;;;3.15;1.23;;;25.70;88.30;;;;;;4938392;29;20020;-79
2022/06/07 07:33:24;;;;;;;2.13;1.30;;;24.90;91.50;;;;;;4938332;29;20464;-81
2022/06/07 07:35:51;;;;;;;1.67;1.33;;;24.40;93.50;;;;;;4921213;29;20039;-81
2022/06/07 07:38:17;;;;;;;1.00;0.80;;;24.00;95.60;;;;;;4938230;29;20027;-81
2022/06/07 07:40:43;;;;;;;4.60;1.17;;;23.70;94.50;;;;;;4938227;29;20119;-81
2022/06/07 07:43:08;;;;;;;0.90;0.90;;;23.40;95.40;;;;;;4921041;29;20031;-81
2022/06/07 07:45:35;;;;;;;3.45;1.00;;;23.30;95.90;;;;;;4938083;29;20032;-81
2022/06/07 07:48:01;;;;;;;1.27;1.08;;;23.20;97.50;;;;;;4938018;29;20082;-81
2022/06/07 07:50:27;;;;;;;1.23;0.90;;;23.40;97.90;;;;;;4938112;29;20032;-81
2022/06/07 07:52:52;;;;;;;1.88;1.00;;;23.60;97.30;;;;;;4938087;29;20095;-81
2022/06/07 07:55:18;;;;;;;1.52;0.90;;;23.80;96.70;;;;;;4937855;29;20038;-81
2022/06/07 07:57:43;;;;;;;2.38;0.80;;;24.00;95.90;;;;;;4937642;29;20120;-79
2022/06/07 08:00:10;;;;;;;2.85;0.80;;;24.40;95.60;;;;;;4920807;29;20038;-79
2022/06/07 08:02:36;;;;;;;0.98;0.93;;;24.60;94.70;;;;;;4937613;29;20046;-81
2022/06/07 08:05:02;;;;;;;2.05;1.00;;;24.40;94.30;;;;;;4937735;29;20024;-81
2022/06/07 08:07:27;;;;;;;1.95;1.10;;;24.30;94.80;;;;;;4937509;29;20349;-79
2022/06/07 08:09:53;;;;;;;1.10;1.00;;;24.40;95.20;;;;;;4937622;29;20110;-80
2022/06/07 08:12:19;;;;;;;4.22;1.35;;;24.50;94.20;;;;;;4937216;29;20035;-80
2022/06/07 08:14:44;;;;;;;1.77;0.98;;;24.40;94.60;;;;;;4920627;29;20032;-79
2022/06/07 08:17:10;;;;;;;2.70;1.17;;;24.60;94.00;;;;;;4920087;29;20114;-81
2022/06/07 08:19:36;;;;;;;1.70;1.23;;;24.40;94.20;;;;;;4920374;29;20170;-80
2022/06/07 08:22:03;;;;;;;1.92;1.27;;;24.00;95.40;;;;;;4937485;29;20102;-80
2022/06/07 08:24:29;;;;;;;3.92;1.23;;;23.70;96.10;;;;;;4937347;29;20051;-80
2022/06/07 08:26:55;;;;;;;1.85;1.25;;;23.30;97.60;;;;;;4920499;29;20531;-80
2022/06/07 08:29:20;;;;;;;7.63;1.70;;;23.00;99.50;;;;;;4937218;29;20032;-80
2022/06/07 08:31:47;;;;;;;2.30;1.10;;;23.00;99.90;;;;;;4937436;29;20028;-81
2022/06/07 08:39:44;;;;;;;3.03;1.40;;;23.00;99.90;;;;;;4937274;29;20091;-80
2022/06/07 08:42:39;;;;;;;2.55;1.27;;;22.90;99.90;;;;;;4920030;29;20035;-81
2022/06/07 08:45:16;;;;;;;2.08;1.23;;;22.90;99.90;;;;;;4929722;29;20039;-80
2022/06/07 08:47:49;;;;;;;1.63;1.52;;;22.70;99.90;;;;;;4920069;29;20028;-80
2022/06/07 08:50:22;;;;;;;2.15;1.40;;;22.70;99.90;;;;;;4937420;29;20028;-81
2022/06/07 08:52:51;;;;;;;1.77;1.60;;;22.60;99.90;;;;;;4919966;29;20091;-81
2022/06/07 08:55:25;;;;;;;2.30;1.50;;;22.50;99.90;;;;;;4937027;29;20042;-81
2022/06/07 08:57:56;;;;;;;4.53;1.60;;;22.40;99.90;;;;;;4937071;29;20023;-81
2022/06/07 09:00:28;;;;;;;2.05;1.45;;;22.50;99.90;;;;;;4936902;29;20039;-81
2022/06/07 09:03:09;;;;;;;2.35;1.50;;;22.60;99.90;;;;;;4936706;29;20066;-81
2022/06/07 09:05:35;;;;;;;1.70;1.50;;;22.70;99.90;;;;;;4919774;29;20024;-81
2022/06/07 09:08:01;;;;;;;4.82;1.70;;;22.70;99.90;;;;;;4936771;29;20046;-81
2022/06/07 09:13:24;;;;;;;5.30;1.95;;;23.50;99.90;;;;;;4936309;29;20046;-81
2022/06/07 09:15:53;;;;;;;2.22;1.75;;;23.70;99.90;;;;;;4936698;29;20047;-82
2022/06/07 09:18:23;;;;;;;1.95;1.70;;;23.90;99.90;;;;;;4937023;29;20034;-83
2022/06/07 09:20:53;;;;;;;3.10;1.63;;;24.20;99.90;;;;;;4919741;29;20028;-82
2022/06/07 09:23:33;;;;;;;2.15;1.42;;;24.30;99.90;;;;;;4936520;29;20027;-83
2022/06/07 09:26:20;;;;;;;4.55;2.05;;;24.20;99.90;;;;;;4936883;29;20440;-82
2022/06/07 09:28:48;;;;;;;3.00;1.70;;;24.10;99.90;;;;;;4918855;29;20058;-82
2022/06/07 09:31:20;;;;;;;5.53;2.13;;;24.50;99.90;;;;;;4919307;29;20039;-80
2022/06/07 09:33:51;;;;;;;1.20;1.20;;;25.00;99.90;;;;;;4936656;29;20036;-80
2022/06/07 09:36:30;;;;;;;4.93;1.38;;;25.40;98.60;;;;;;4919549;29;20376;-80
2022/06/07 09:38:59;;;;;;;3.00;1.35;;;26.00;97.50;;;;;;4936588;29;20452;-82
2022/06/07 09:41:36;;;;;;;1.52;1.38;;;26.80;94.10;;;;;;4919804;29;20468;-82
2022/06/07 09:44:25;;;;;;;5.75;1.42;;;27.20;92.90;;;;;;4936660;29;20114;-83
2022/06/07 09:47:06;;;;;;;7.47;1.80;;;27.90;90.60;;;;;;4936569;29;20484;-83
2022/06/07 09:49:47;;;;;;;2.00;1.50;;;28.70;80.00;;;;;;4936811;29;20035;-83
2022/06/07 09:52:23;;;;;;;2.70;1.50;;;28.90;75.30;;;;;;4936342;29;20036;-82
2022/06/07 09:54:54;;;;;;;2.00;1.80;;;29.00;76.70;;;;;;4936466;29;20056;-81
2022/06/07 09:57:29;;;;;;;4.85;1.95;;;29.10;74.80;;;;;;4936408;29;20400;-82
2022/06/07 10:00:02;;;;;;;4.65;1.80;;;28.90;75.30;;;;;;4919263;29;20361;-82
2022/06/07 10:02:56;;;;;;;2.75;2.00;;;29.20;75.70;;;;;;4936366;29;20035;-81
2022/06/07 10:06:00;;;;;;;2.85;2.03;;;28.70;74.80;;;;;;4936408;29;20499;-81
2022/06/07 10:08:34;;;;;;;3.80;2.22;;;27.70;79.40;;;;;;4926922;29;20047;-79
2022/06/07 10:11:16;;;;;;;3.20;2.03;;;26.50;86.70;;;;;;4936404;29;20020;-79
2022/06/07 10:13:54;;;;;;;2.33;2.20;;;26.20;91.70;;;;;;4935752;29;20119;-79
2022/06/07 10:16:38;;;;;;;5.88;2.20;;;26.80;91.30;;;;;;4936029;29;20028;-82
2022/06/07 10:19:30;;;;;;;2.40;2.20;;;27.30;85.90;;;;;;4919224;29;20036;-82
2022/06/07 10:22:11;;;;;;;4.07;2.50;;;28.00;81.30;;;;;;4936108;29;20047;-82
2022/06/07 10:24:56;;;;;;;2.75;2.05;;;28.50;80.20;;;;;;4922958;29;20078;-82
2022/06/07 10:27:40;;;;;;;3.10;2.60;;;29.50;74.50;;;;;;4936225;29;20047;-82
2022/06/07 10:30:26;;;;;;;2.05;1.95;;;29.40;71.00;;;;;;4934762;29;20032;-82
2022/06/07 10:33:01;;;;;;;3.50;2.50;;;28.70;73.40;;;;;;4936098;29;20042;-82
2022/06/07 10:35:59;;;;;;;5.28;2.00;;;28.20;73.10;;;;;;4936057;29;20062;-82
2022/06/07 10:38:47;;;;;;;1.97;1.87;;;28.10;77.60;;;;;;4936867;29;20050;-82
2022/06/07 10:41:24;;;;;;;2.92;2.13;;;28.50;74.40;;;;;;4939472;29;20464;-82
2022/06/07 10:44:05;;;;;;;2.13;1.90;;;28.90;72.30;;;;;;4939401;29;20046;-81
2022/06/07 10:46:39;;;;;;;3.33;2.00;;;29.60;71.50;;;;;;4939429;29;20039;-82
2022/06/07 10:49:15;;;;;;;3.17;2.00;;;30.10;69.10;;;;;;4939396;29;20039;-83
2022/06/07 10:55:06;;;;;;;1.75;1.50;;;30.10;66.10;;;;;;4939470;29;20055;-82
2022/06/07 10:57:40;;;;;;;2.45;1.63;;;29.70;68.50;;;;;;4939163;29;20032;-82
2022/06/07 11:00:50;;;;;;;1.50;1.40;;;29.40;67.50;;;;;;4939336;29;20027;-83
2022/06/07 11:03:53;;;;;;;1.70;1.60;;;29.00;66.80;;;;;;4942211;29;20509;-83
2022/06/07 11:09:43;;;;;;;2.08;1.80;;;28.00;69.70;;;;;;4957784;29;20089;-79
2022/06/07 11:12:35;;;;;;;1.65;1.55;;;27.20;75.20;;;;;;4940733;29;20070;-79
2022/06/07 11:15:19;;;;;;;7.45;2.08;;;26.50;81.70;;;;;;4953947;29;20039;-79
2022/06/07 11:18:11;;;;;;;2.75;1.95;;;26.10;89.60;;;;;;4940563;29;20023;-79
2022/06/07 11:20:50;;;;;;;2.03;1.88;;;25.70;93.20;;;;;;4957859;29;20027;-79
2022/06/07 11:23:29;;;;;;;6.68;2.22;;;25.40;96.20;;;;;;4957892;29;20027;-81
2022/06/07 11:26:07;;;;;;;3.92;2.03;;;24.90;98.30;;;;;;4957834;29;20521;-81
2022/06/07 11:28:38;;;;;;;2.60;2.30;;;24.40;99.90;;;;;;4957563;29;20027;-81
2022/06/07 11:31:35;;;;;;;1.92;1.83;;;24.00;99.90;;;;;;4957433;29;20271;-81
2022/06/07 11:34:11;;;;;;;1.88;1.73;;;23.60;99.90;;;;;;4940078;29;20372;-81
2022/06/07 11:36:40;;;;;;;1.90;1.77;;;23.20;99.90;;;;;;4940264;29;20023;-81
2022/06/07 11:39:27;;;;;;;2.65;2.00;;;22.90;99.90;;;;;;4940296;29;20035;-81
2022/06/07 11:41:56;;;;;;;1.95;1.85;;;22.60;99.90;;;;;;4957400;29;20035;-80
2022/06/07 11:44:39;;;;;;;2.20;2.10;;;22.30;99.90;;;;;;4957374;29;20035;-81
2022/06/07 11:47:07;;;;;;;2.40;2.20;;;21.80;99.90;;;;;;4957438;29;20038;-81
2022/06/07 11:49:54;;;;;;;2.20;2.00;;;21.50;99.90;;;;;;4940185;28;20024;-81
2022/06/07 11:52:30;;;;;;;3.78;2.65;;;21.40;99.90;;;;;;4957302;29;20126;-81
2022/06/07 11:55:38;;;;;;;7.45;2.65;;;21.20;99.90;;;;;;4957205;29;20046;-80
2022/06/07 11:58:07;;;;;;;2.88;2.55;;;21.10;99.90;;;;;;4920493;29;20127;-81
2022/06/07 12:00:44;;;;;;;3.33;2.65;;;20.80;99.90;;;;;;4939816;29;20032;-56
2022/06/07 12:03:11;;;;;;;4.10;2.60;;;20.70;99.90;;;;;;4957212;29;20031;-56
2022/06/07 12:05:52;;;;;;;3.90;3.10;;;20.60;99.90;;;;;;4956533;29;20483;-56
2022/06/07 12:08:28;;;;;;;4.65;3.08;;;20.40;99.90;;;;;;4956966;29;20032;-79
2022/06/07 12:11:20;;;;;;;6.13;3.47;;;20.20;99.90;;;;;;4956838;29;20029;-79
2022/06/07 12:13:54;;;;;;;4.03;3.58;;;20.00;99.90;;;;;;4940401;29;20360;-80
2022/06/07 12:16:51;;;;;;;5.75;3.70;;;19.80;99.90;;;;;;4957116;29;20059;-78
2022/06/07 12:19:18;;;;;;;4.53;3.97;;;19.70;99.90;;;;;;4956934;29;20034;-79
2022/06/07 12:22:05;;;;;;;5.50;4.20;;;19.60;99.90;;;;;;4956698;29;20031;-77
2022/06/07 12:24:42;;;;;;;5.53;4.70;;;19.50;99.90;;;;;;4956387;29;20051;-78
2022/06/07 12:27:22;;;;;;;4.53;4.13;;;19.50;99.90;;;;;;4956580;29;20043;-78
2022/06/07 12:29:49;;;;;;;5.18;4.57;;;19.30;99.90;;;;;;4956233;29;20464;-80
2022/06/07 12:32:44;;;;;;;5.63;5.13;;;19.30;99.90;;;;;;4956447;29;20035;-79
2022/06/07 12:35:28;;;;;;;6.97;4.85;;;19.20;99.90;;;;;;4940314;29;20058;-79
2022/06/07 12:37:56;;;;;;;7.68;4.80;;;19.10;99.90;;;;;;4939267;29;20114;-79
2022/06/07 12:40:24;;;;;;;6.40;5.30;;;19.00;99.90;;;;;;4956416;29;20019;-79
2022/06/07 12:42:50;;;;;;;6.47;5.72;;;18.80;99.90;;;;;;4939190;29;20040;-79
2022/06/07 12:45:27;;;;;;;10.35;6.35;;;18.60;99.90;;;;;;4956135;29;20041;-58
2022/06/07 12:47:58;;;;;;;8.95;6.60;;;18.60;99.90;;;;;;4956304;29;20035;-58
2022/06/07 12:50:32;;;;;;;8.50;6.20;;;18.50;99.90;;;;;;4956172;29;20435;-58
2022/06/07 12:52:58;;;;;;;9.32;6.13;;;18.50;99.90;;;;;;4955990;29;20031;-59
2022/06/07 12:55:28;;;;;;;8.32;6.72;;;18.40;99.90;;;;;;4956032;29;20046;-59
2022/06/07 12:57:58;;;;;;;10.20;7.32;;;18.40;99.90;;;;;;4956261;29;20027;-58
2022/06/07 13:00:34;;;;;;;10.48;7.63;;;18.40;99.90;;;;;;4955947;29;20479;-59
2022/06/07 13:03:25;;;;;;;8.65;6.85;;;18.50;99.90;;;;;;4937997;29;20039;-59
2022/06/07 13:05:58;;;;;;;7.82;6.72;;;18.40;99.90;;;;;;4923282;29;20379;-59
2022/06/07 13:08:30;;;;;;;11.65;7.15;;;18.30;99.90;;;;;;4956024;29;20031;-58
2022/06/07 13:10:56;;;;;;;8.75;7.85;;;18.30;99.90;;;;;;4956183;29;20091;-59
2022/06/07 13:13:34;;;;;;;9.32;8.23;;;18.30;99.90;;;;;;4955596;29;20035;-75
2022/06/07 13:16:16;;;;;;;10.15;8.55;;;18.40;99.90;;;;;;4938695;29;20082;-78
2022/06/07 13:18:56;;;;;;;10.48;7.88;;;18.40;99.90;;;;;;4938953;29;20387;-83
2022/06/07 13:21:38;;;;;;;9.50;7.10;;;18.40;99.90;;;;;;4956681;29;20031;-89
2022/06/07 13:24:04;;;;;;;9.55;7.10;;;18.40;99.90;;;;;;4938543;29;20036;-81
2022/06/07 13:26:43;;;;;;;9.32;6.63;;;18.40;99.90;;;;;;4938629;29;20140;-61
2022/06/07 13:29:31;;;;;;;8.23;6.50;;;18.40;99.90;;;;;;4956203;29;20066;-61